Time;durP1;ratioP1;P1;durP2;ratioP2;P2;SDS_P1;SDS_P2;PMS_P1;PMS_P2;Temp;Humidity;BMP_temperature;BMP_pressure;BME280_temperature;BME280_humidity;BME280_pressure;Samples;Min_cycle;Max_cycle;Signal;HPM_P1;HPM_P2
2022/03/08 00:00:51;;;;;;;17.87;12.40;;;;;;;;;;5030248;28;20214;-58
2022/03/08 00:03:17;;;;;;;19.30;12.40;;;;;;;;;;5030224;28;20218;-58
2022/03/08 00:05:43;;;;;;;17.00;12.03;;;;;;;;;;5045353;28;20304;-58
2022/03/08 00:08:08;;;;;;;17.23;11.13;;;;;;;;;;5027962;28;20289;-57
2022/03/08 00:10:33;;;;;;;15.43;10.83;;;;;;;;;;5046910;28;20547;-57
2022/03/08 00:12:58;;;;;;;21.07;11.77;;;;;;;;;;5052256;28;20793;-57
2022/03/08 00:15:24;;;;;;;17.33;11.43;;;;;;;;;;5063118;28;20217;-57
2022/03/08 00:17:50;;;;;;;18.40;12.67;;;;;;;;;;5054488;28;20220;-58
2022/03/08 00:20:15;;;;;;;18.27;12.10;;;;;;;;;;5044588;28;20621;-58
2022/03/08 00:22:40;;;;;;;18.87;11.40;;;;;;;;;;5040512;28;20601;-58
2022/03/08 00:25:06;;;;;;;16.93;10.90;;;;;;;;;;5036005;28;20302;-58
2022/03/08 00:27:31;;;;;;;16.70;10.90;;;;;;;;;;5039196;28;20257;-57
2022/03/08 00:29:56;;;;;;;18.47;12.23;;;;;;;;;;5040304;28;20230;-57
2022/03/08 00:32:21;;;;;;;21.37;11.80;;;;;;;;;;5044534;28;20267;-58
2022/03/08 00:34:47;;;;;;;14.93;10.90;;;;;;;;;;5044692;28;20668;-57
2022/03/08 00:37:12;;;;;;;17.30;11.27;;;;;;;;;;5043585;28;20215;-57
2022/03/08 00:39:37;;;;;;;18.87;11.10;;;;;;;;;;5044364;28;20700;-57
2022/03/08 00:42:03;;;;;;;16.33;11.20;;;;;;;;;;5045571;28;20268;-57
2022/03/08 00:44:28;;;;;;;15.87;10.57;;;;;;;;;;5062346;28;20685;-58
2022/03/08 00:46:53;;;;;;;15.97;10.83;;;;;;;;;;5039031;28;20284;-57
2022/03/08 00:49:19;;;;;;;16.50;10.80;;;;;;;;;;5059638;28;20242;-58
2022/03/08 00:51:44;;;;;;;19.50;11.13;;;;;;;;;;5061014;28;20222;-57
2022/03/08 00:54:09;;;;;;;16.73;10.60;;;;;;;;;;5067063;28;20217;-58
2022/03/08 00:56:34;;;;;;;16.93;11.30;;;;;;;;;;5067416;28;20205;-57
2022/03/08 00:59:00;;;;;;;16.10;10.57;;;;;;;;;;5067799;28;20673;-57
2022/03/08 01:01:25;;;;;;;17.80;10.47;;;;;;;;;;5067178;28;20206;-57
2022/03/08 01:03:50;;;;;;;16.90;10.33;;;;;;;;;;5067126;28;20210;-58
2022/03/08 01:06:15;;;;;;;17.33;10.83;;;;;;;;;;5048752;28;20257;-57
2022/03/08 01:08:41;;;;;;;16.40;10.63;;;;;;;;;;5024301;28;20279;-57
2022/03/08 01:11:06;;;;;;;15.93;10.50;;;;;;;;;;5039683;28;20207;-57
2022/03/08 01:13:31;;;;;;;14.83;10.37;;;;;;;;;;5041014;28;20222;-57
2022/03/08 01:15:56;;;;;;;17.47;11.13;;;;;;;;;;5046430;28;20356;-57
2022/03/08 01:18:22;;;;;;;19.27;10.17;;;;;;;;;;5047080;28;20302;-58
2022/03/08 01:20:47;;;;;;;13.93;9.17;;;;;;;;;;5048526;28;20745;-57
2022/03/08 01:23:12;;;;;;;14.90;10.07;;;;;;;;;;5047312;28;20218;-58
2022/03/08 01:25:40;;;;;;;15.60;9.70;;;;;;;;;;5047285;28;20725;-57
2022/03/08 01:28:06;;;;;;;14.40;10.03;;;;;;;;;;5047750;28;20226;-58
2022/03/08 01:30:31;;;;;;;17.10;9.50;;;;;;;;;;5044839;28;20241;-58
2022/03/08 01:32:56;;;;;;;14.90;10.20;;;;;;;;;;5039618;28;20377;-57
2022/03/08 01:35:22;;;;;;;14.37;9.47;;;;;;;;;;5039635;28;20585;-58
2022/03/08 01:37:47;;;;;;;13.80;9.67;;;;;;;;;;5043523;28;20273;-57
2022/03/08 01:40:15;;;;;;;16.23;9.40;;;;;;;;;;5046633;28;20211;-57
2022/03/08 01:42:41;;;;;;;15.87;8.97;;;;;;;;;;5047822;28;20607;-57
2022/03/08 01:45:06;;;;;;;15.23;9.27;;;;;;;;;;5047222;28;20239;-58
2022/03/08 01:47:32;;;;;;;14.17;9.60;;;;;;;;;;5047044;28;20300;-57
2022/03/08 01:49:57;;;;;;;14.03;9.67;;;;;;;;;;5047379;28;20357;-57
2022/03/08 01:52:23;;;;;;;14.60;9.27;;;;;;;;;;5045188;28;20226;-58
2022/03/08 01:54:48;;;;;;;12.77;9.13;;;;;;;;;;5039650;28;20211;-57
2022/03/08 01:57:13;;;;;;;15.07;9.17;;;;;;;;;;5039489;28;20207;-57
2022/03/08 01:59:39;;;;;;;14.20;9.80;;;;;;;;;;5040734;28;20773;-57
2022/03/08 02:02:04;;;;;;;14.57;9.80;;;;;;;;;;5046389;28;20219;-57
2022/03/08 02:04:29;;;;;;;13.60;9.17;;;;;;;;;;5061974;28;20711;-57
2022/03/08 02:06:55;;;;;;;12.67;8.83;;;;;;;;;;5046535;28;20234;-58
2022/03/08 02:09:20;;;;;;;14.27;9.37;;;;;;;;;;5046487;28;20219;-58
2022/03/08 02:11:45;;;;;;;13.70;9.23;;;;;;;;;;5047177;28;20301;-57
2022/03/08 02:14:10;;;;;;;13.80;9.30;;;;;;;;;;5027781;28;20305;-58
2022/03/08 02:16:36;;;;;;;12.57;8.77;;;;;;;;;;5040506;28;20596;-57
2022/03/08 02:19:01;;;;;;;12.77;8.43;;;;;;;;;;5038909;28;20211;-57
2022/03/08 02:21:28;;;;;;;15.40;9.00;;;;;;;;;;5039081;28;20284;-58
2022/03/08 02:23:53;;;;;;;13.07;9.03;;;;;;;;;;5044787;28;20211;-57
2022/03/08 02:26:20;;;;;;;12.60;8.80;;;;;;;;;;5046327;28;20672;-57
2022/03/08 02:28:45;;;;;;;12.30;8.37;;;;;;;;;;5046194;28;20203;-57
2022/03/08 02:31:11;;;;;;;13.57;8.70;;;;;;;;;;5046569;28;20580;-57
2022/03/08 02:33:36;;;;;;;11.80;8.47;;;;;;;;;;5046950;28;20318;-58
2022/03/08 02:36:01;;;;;;;12.27;8.13;;;;;;;;;;5045552;28;20341;-57
2022/03/08 02:38:26;;;;;;;17.73;8.37;;;;;;;;;;5043437;28;20206;-57
2022/03/08 02:40:52;;;;;;;13.27;8.07;;;;;;;;;;5037167;28;20207;-57
2022/03/08 02:43:17;;;;;;;12.97;7.83;;;;;;;;;;5037658;28;20777;-57
2022/03/08 02:45:42;;;;;;;12.40;8.07;;;;;;;;;;5024653;28;20696;-57
2022/03/08 02:48:08;;;;;;;9.83;7.33;;;;;;;;;;5045925;28;20276;-57
2022/03/08 02:50:33;;;;;;;10.83;7.23;;;;;;;;;;5045691;28;20582;-57
2022/03/08 02:52:58;;;;;;;10.43;7.50;;;;;;;;;;5046335;28;20227;-57
2022/03/08 02:55:26;;;;;;;10.80;7.67;;;;;;;;;;5045464;28;21026;-57
2022/03/08 02:57:51;;;;;;;11.93;7.33;;;;;;;;;;5045584;28;20235;-57
2022/03/08 03:00:16;;;;;;;10.53;6.83;;;;;;;;;;5045412;28;20239;-57
2022/03/08 03:02:42;;;;;;;11.37;7.07;;;;;;;;;;5038299;28;20778;-57
2022/03/08 03:05:07;;;;;;;10.50;7.00;;;;;;;;;;5037975;28;20220;-57
2022/03/08 03:07:33;;;;;;;10.47;6.90;;;;;;;;;;5039430;28;20334;-57
2022/03/08 03:09:58;;;;;;;9.17;6.63;;;;;;;;;;5044739;28;20211;-57
2022/03/08 03:12:23;;;;;;;11.43;6.77;;;;;;;;;;5044844;28;20701;-57
2022/03/08 03:14:49;;;;;;;11.67;7.40;;;;;;;;;;5046056;28;20207;-57
2022/03/08 03:17:14;;;;;;;11.17;7.23;;;;;;;;;;5044918;28;20215;-57
2022/03/08 03:19:39;;;;;;;9.90;7.43;;;;;;;;;;5045803;28;20659;-57
2022/03/08 03:22:05;;;;;;;10.70;7.47;;;;;;;;;;5027595;28;20419;-57
2022/03/08 03:24:30;;;;;;;11.87;7.50;;;;;;;;;;5039316;28;20203;-58
2022/03/08 03:26:55;;;;;;;10.07;7.00;;;;;;;;;;5020237;28;20644;-57
2022/03/08 03:29:21;;;;;;;10.17;6.97;;;;;;;;;;5037801;28;20861;-58
2022/03/08 03:31:46;;;;;;;11.63;7.10;;;;;;;;;;5041993;28;20246;-57
2022/03/08 03:34:11;;;;;;;10.70;7.23;;;;;;;;;;5045164;28;20268;-58
2022/03/08 03:36:36;;;;;;;10.07;6.67;;;;;;;;;;5045509;28;20219;-57
2022/03/08 03:39:03;;;;;;;10.57;6.70;;;;;;;;;;5044283;28;20222;-57
2022/03/08 03:41:28;;;;;;;9.60;6.90;;;;;;;;;;5045115;28;20238;-57
2022/03/08 03:43:53;;;;;;;10.77;6.57;;;;;;;;;;5045384;28;20690;-57
2022/03/08 03:46:19;;;;;;;11.20;7.40;;;;;;;;;;5041446;28;20219;-57
2022/03/08 03:48:44;;;;;;;11.53;6.70;;;;;;;;;;5037558;28;20227;-57
2022/03/08 03:51:09;;;;;;;11.23;6.73;;;;;;;;;;5056466;28;20669;-58
2022/03/08 03:53:34;;;;;;;10.50;6.63;;;;;;;;;;5058262;28;20226;-57
2022/03/08 03:56:00;;;;;;;9.67;6.70;;;;;;;;;;5064732;28;20214;-57
2022/03/08 03:58:25;;;;;;;10.40;6.87;;;;;;;;;;5063823;28;20618;-57
2022/03/08 04:00:50;;;;;;;12.00;7.10;;;;;;;;;;5063982;28;20328;-57
2022/03/08 04:03:18;;;;;;;12.57;7.50;;;;;;;;;;5064061;28;20217;-58
2022/03/08 04:05:44;;;;;;;10.23;7.23;;;;;;;;;;5049798;28;20770;-57
2022/03/08 04:08:09;;;;;;;10.52;6.88;;;;;;;;;;5043420;28;20238;-57
2022/03/08 04:10:34;;;;;;;10.37;6.93;;;;;;;;;;5037596;28;20242;-57
2022/03/08 04:12:59;;;;;;;9.33;6.33;;;;;;;;;;5036943;28;20231;-57
2022/03/08 04:15:25;;;;;;;9.67;6.70;;;;;;;;;;5037009;28;20826;-57
2022/03/08 04:17:51;;;;;;;10.80;6.90;;;;;;;;;;5045000;28;20203;-57
2022/03/08 04:20:16;;;;;;;10.20;6.57;;;;;;;;;;5044161;28;20222;-58
2022/03/08 04:22:41;;;;;;;10.40;6.80;;;;;;;;;;5043144;28;20214;-57
2022/03/08 04:25:07;;;;;;;10.53;7.00;;;;;;;;;;5043977;28;20223;-57
2022/03/08 04:27:32;;;;;;;10.37;6.60;;;;;;;;;;5026710;28;20292;-57
2022/03/08 04:29:57;;;;;;;12.43;7.33;;;;;;;;;;5044397;28;20616;-57
2022/03/08 04:32:23;;;;;;;11.73;6.67;;;;;;;;;;5039171;28;20615;-57
2022/03/08 04:34:48;;;;;;;10.67;6.50;;;;;;;;;;5036501;28;20743;-57
2022/03/08 04:37:13;;;;;;;10.87;6.90;;;;;;;;;;5036824;28;20422;-57
2022/03/08 04:39:38;;;;;;;10.43;6.50;;;;;;;;;;5041614;28;20305;-57
2022/03/08 04:42:04;;;;;;;9.23;6.90;;;;;;;;;;5043768;28;20257;-57
2022/03/08 04:44:29;;;;;;;9.27;6.80;;;;;;;;;;5044189;28;20211;-57
2022/03/08 04:46:54;;;;;;;12.57;6.80;;;;;;;;;;5044191;28;20253;-57
2022/03/08 04:49:20;;;;;;;10.67;6.53;;;;;;;;;;5043175;28;21326;-57
2022/03/08 04:51:45;;;;;;;10.13;6.47;;;;;;;;;;5044602;28;20219;-56
2022/03/08 04:54:10;;;;;;;9.87;6.67;;;;;;;;;;5040869;28;20231;-57
2022/03/08 04:56:35;;;;;;;9.97;6.53;;;;;;;;;;5033253;28;20210;-58
2022/03/08 04:59:01;;;;;;;9.30;6.70;;;;;;;;;;5036094;28;20274;-57
2022/03/08 05:01:26;;;;;;;9.70;6.60;;;;;;;;;;5039662;28;20215;-57
2022/03/08 05:03:51;;;;;;;10.40;6.63;;;;;;;;;;5043860;28;20214;-57
2022/03/08 05:06:17;;;;;;;10.17;6.93;;;;;;;;;;5044187;28;20565;-57
2022/03/08 05:08:43;;;;;;;10.93;6.83;;;;;;;;;;5045675;28;20217;-57
2022/03/08 05:11:08;;;;;;;13.17;6.90;;;;;;;;;;5062557;28;20217;-57
2022/03/08 05:13:33;;;;;;;8.80;6.57;;;;;;;;;;5063726;28;20571;-58
2022/03/08 05:15:59;;;;;;;11.77;6.77;;;;;;;;;;5063191;28;20256;-58
2022/03/08 05:18:24;;;;;;;9.60;6.77;;;;;;;;;;5036102;28;20234;-58
2022/03/08 05:20:49;;;;;;;9.63;6.57;;;;;;;;;;5036602;28;20474;-58
2022/03/08 05:23:15;;;;;;;12.43;6.53;;;;;;;;;;5036944;28;20694;-58
2022/03/08 05:25:41;;;;;;;9.97;6.77;;;;;;;;;;5043111;28;20251;-58
2022/03/08 05:28:06;;;;;;;9.97;6.63;;;;;;;;;;5043651;28;20217;-58
2022/03/08 05:30:32;;;;;;;11.53;6.93;;;;;;;;;;5042481;28;20215;-58
2022/03/08 05:32:57;;;;;;;11.20;7.10;;;;;;;;;;5043027;28;20234;-58
2022/03/08 05:35:22;;;;;;;12.10;7.50;;;;;;;;;;5047582;28;20650;-58
2022/03/08 05:37:47;;;;;;;8.73;6.17;;;;;;;;;;5047670;28;20674;-58
2022/03/08 05:40:13;;;;;;;10.37;6.93;;;;;;;;;;5041279;28;20218;-58
2022/03/08 05:42:38;;;;;;;11.93;6.93;;;;;;;;;;5040180;28;20655;-58
2022/03/08 05:45:04;;;;;;;11.73;6.93;;;;;;;;;;5039187;28;20214;-58
2022/03/08 05:47:30;;;;;;;15.17;7.40;;;;;;;;;;5044830;28;20250;-58
2022/03/08 05:49:55;;;;;;;13.83;7.27;;;;;;;;;;5047512;28;20354;-58
2022/03/08 05:52:20;;;;;;;10.27;6.80;;;;;;;;;;5046429;28;20226;-58
2022/03/08 05:54:45;;;;;;;9.30;6.70;;;;;;;;;;5047258;28;20611;-59
2022/03/08 05:57:11;;;;;;;11.57;7.10;;;;;;;;;;5046779;28;20207;-58
2022/03/08 05:59:36;;;;;;;12.23;6.97;;;;;;;;;;5046673;28;20207;-58
2022/03/08 06:02:01;;;;;;;11.70;8.00;;;;;;;;;;5042714;28;20442;-57
2022/03/08 06:04:26;;;;;;;11.10;6.80;;;;;;;;;;5040108;28;20207;-58
2022/03/08 06:06:54;;;;;;;9.23;7.03;;;;;;;;;;5038949;28;20203;-57
2022/03/08 06:09:19;;;;;;;11.23;8.00;;;;;;;;;;5041416;28;20423;-58
2022/03/08 06:11:44;;;;;;;8.87;6.57;;;;;;;;;;5029879;28;20534;-58
2022/03/08 06:14:09;;;;;;;10.03;6.77;;;;;;;;;;5045821;28;20218;-58
2022/03/08 06:16:35;;;;;;;12.67;7.13;;;;;;;;;;5046595;28;20400;-57
2022/03/08 06:19:00;;;;;;;10.00;6.70;;;;;;;;;;5046869;28;20215;-58
2022/03/08 06:21:25;;;;;;;10.60;6.60;;;;;;;;;;5045952;28;20214;-58
2022/03/08 06:23:51;;;;;;;9.70;6.50;;;;;;;;;;5046852;28;20264;-58
2022/03/08 06:26:16;;;;;;;11.23;6.80;;;;;;;;;;5038878;28;20219;-58
2022/03/08 06:28:41;;;;;;;16.37;7.07;;;;;;;;;;5038302;28;20207;-57
2022/03/08 06:31:07;;;;;;;11.73;7.20;;;;;;;;;;5039307;28;20697;-58
2022/03/08 06:33:32;;;;;;;13.07;7.70;;;;;;;;;;5046067;28;20258;-58
2022/03/08 06:35:57;;;;;;;12.10;7.40;;;;;;;;;;5046142;28;20666;-58
2022/03/08 06:38:22;;;;;;;12.70;7.30;;;;;;;;;;5045899;28;20215;-58
2022/03/08 06:40:48;;;;;;;14.53;7.43;;;;;;;;;;5046255;28;20207;-58
2022/03/08 06:43:13;;;;;;;12.27;7.70;;;;;;;;;;5045170;28;20306;-58
2022/03/08 06:45:38;;;;;;;14.70;7.90;;;;;;;;;;5045181;28;20221;-58
2022/03/08 06:48:04;;;;;;;13.40;8.10;;;;;;;;;;5041013;28;20227;-58
2022/03/08 06:50:30;;;;;;;11.07;7.43;;;;;;;;;;5037876;28;20553;-58
2022/03/08 06:52:55;;;;;;;11.87;7.70;;;;;;;;;;5058282;28;20272;-58
2022/03/08 06:55:21;;;;;;;12.17;7.87;;;;;;;;;;5061484;28;20218;-58
2022/03/08 06:57:46;;;;;;;9.60;6.93;;;;;;;;;;5065448;28;20712;-58
2022/03/08 07:00:11;;;;;;;10.97;7.33;;;;;;;;;;5064900;28;20238;-58
2022/03/08 07:02:37;;;;;;;10.10;7.10;;;;;;;;;;5064431;28;20322;-58
2022/03/08 07:05:03;;;;;;;10.83;7.20;;;;;;;;;;5056097;28;20474;-59
2022/03/08 07:07:29;;;;;;;9.60;6.83;;;;;;;;;;5064986;28;20304;-58
2022/03/08 07:09:54;;;;;;;10.37;7.60;;;;;;;;;;5061832;28;20636;-59
2022/03/08 07:12:20;;;;;;;12.30;8.07;;;;;;;;;;5039241;28;20754;-57
2022/03/08 07:14:45;;;;;;;9.57;6.93;;;;;;;;;;5038171;28;20222;-58
2022/03/08 07:17:10;;;;;;;10.33;7.13;;;;;;;;;;5039246;28;20202;-56
2022/03/08 07:19:35;;;;;;;12.03;7.33;;;;;;;;;;5045880;28;20342;-56
2022/03/08 07:22:01;;;;;;;14.70;7.70;;;;;;;;;;5045229;28;20207;-57
2022/03/08 07:24:26;;;;;;;12.43;7.57;;;;;;;;;;5044948;28;20242;-57
2022/03/08 07:26:51;;;;;;;10.47;7.13;;;;;;;;;;5045890;28;20236;-58
2022/03/08 07:29:16;;;;;;;11.23;6.97;;;;;;;;;;5048959;28;20230;-57
2022/03/08 07:31:42;;;;;;;12.27;7.17;;;;;;;;;;5045118;28;20222;-58
2022/03/08 07:34:07;;;;;;;10.93;7.43;;;;;;;;;;5037909;28;20223;-58
2022/03/08 07:36:33;;;;;;;15.03;8.70;;;;;;;;;;5038295;28;20203;-58
2022/03/08 07:38:58;;;;;;;12.23;6.67;;;;;;;;;;5020527;28;20222;-58
2022/03/08 07:41:23;;;;;;;9.40;6.47;;;;;;;;;;5044150;28;20743;-59
2022/03/08 07:43:48;;;;;;;12.40;7.13;;;;;;;;;;5045621;28;20256;-58
2022/03/08 07:46:15;;;;;;;10.03;6.37;;;;;;;;;;5044234;28;20642;-58
2022/03/08 07:48:40;;;;;;;9.50;6.63;;;;;;;;;;5045351;28;20260;-58
2022/03/08 07:51:05;;;;;;;8.40;6.33;;;;;;;;;;5045122;28;20231;-58
2022/03/08 07:53:30;;;;;;;9.17;6.23;;;;;;;;;;5063697;28;20226;-59
2022/03/08 07:55:56;;;;;;;9.65;6.63;;;;;;;;;;5059224;28;20511;-59
2022/03/08 07:58:21;;;;;;;10.45;6.40;;;;;;;;;;5039035;28;20246;-59
2022/03/08 08:00:46;;;;;;;9.00;6.40;;;;;;;;;;5040898;28;20572;-58
2022/03/08 08:03:12;;;;;;;8.90;6.00;;;;;;;;;;5049361;28;20218;-59
2022/03/08 08:05:37;;;;;;;8.93;6.57;;;;;;;;;;5063794;28;20271;-59
2022/03/08 08:08:03;;;;;;;8.38;6.10;;;;;;;;;;5069957;28;20242;-60
2022/03/08 08:10:28;;;;;;;9.15;5.63;;;;;;;;;;5070012;28;20207;-59
2022/03/08 08:12:53;;;;;;;7.80;5.88;;;;;;;;;;5069319;28;20222;-59
2022/03/08 08:15:19;;;;;;;9.50;6.72;;;;;;;;;;5069700;28;20222;-59
2022/03/08 08:17:44;;;;;;;9.65;6.28;;;;;;;;;;5061982;28;20211;-59
2022/03/08 08:20:09;;;;;;;12.18;8.50;;;;;;;;;;5068926;28;20210;-59
2022/03/08 08:22:35;;;;;;;9.52;6.18;;;;;;;;;;5070299;28;20291;-59
2022/03/08 08:25:00;;;;;;;10.70;6.82;;;;;;;;;;5065033;28;20734;-59
2022/03/08 08:27:25;;;;;;;8.82;6.00;;;;;;;;;;5048118;28;20571;-59
2022/03/08 08:29:51;;;;;;;8.82;6.35;;;;;;;;;;5060157;28;20268;-59
2022/03/08 08:32:16;;;;;;;7.90;5.82;;;;;;;;;;5069126;28;20738;-59
2022/03/08 08:34:41;;;;;;;6.50;5.32;;;;;;;;;;5059685;28;20206;-59
2022/03/08 08:37:07;;;;;;;8.30;5.35;;;;;;;;;;5069393;28;20311;-59
2022/03/08 08:39:32;;;;;;;10.63;6.07;;;;;;;;;;5070142;28;20218;-59
2022/03/08 08:41:58;;;;;;;9.27;6.85;;;;;;;;;;5069032;28;20705;-59
2022/03/08 08:44:25;;;;;;;30.70;14.60;;;;;;;;;;5069444;28;20563;-59
2022/03/08 08:46:51;;;;;;;9.98;6.18;;;;;;;;;;5043310;28;20214;-59
2022/03/08 08:49:16;;;;;;;13.65;8.95;;;;;;;;;;5048414;28;20659;-59
2022/03/08 08:51:41;;;;;;;9.50;6.05;;;;;;;;;;5049756;28;20214;-59
2022/03/08 08:54:06;;;;;;;8.85;6.55;;;;;;;;;;5048736;28;20222;-59
2022/03/08 08:56:35;;;;;;;9.75;7.55;;;;;;;;;;5049049;28;20203;-59
2022/03/08 08:59:01;;;;;;;7.78;6.20;;;;;;;;;;5049234;28;20658;-60
2022/03/08 09:01:26;;;;;;;9.85;5.47;;;;;;;;;;5051881;28;20230;-59
2022/03/08 09:03:52;;;;;;;8.15;5.05;;;;;;;;;;5049281;28;20709;-59
2022/03/08 09:06:17;;;;;;;10.60;5.82;;;;;;;;;;5049756;28;20264;-59
2022/03/08 09:08:42;;;;;;;8.30;4.78;;;;;;;;;;5054849;28;20202;-58
2022/03/08 09:11:10;;;;;;;10.73;5.55;;;;;;;;;;5072290;28;20665;-60
2022/03/08 09:13:35;;;;;;;8.38;5.47;;;;;;;;;;5067320;28;20669;-59
2022/03/08 09:16:00;;;;;;;7.18;4.80;;;;;;;;;;5072905;28;20247;-59
2022/03/08 09:21:11;;;;;;;8.52;5.47;;;;;;;;;;5072983;28;20214;-59
2022/03/08 09:23:37;;;;;;;8.68;5.43;;;;;;;;;;5072750;28;20202;-59
2022/03/08 09:26:02;;;;;;;7.88;5.97;;;;;;;;;;5066227;28;20430;-58
2022/03/08 09:28:28;;;;;;;10.75;6.28;;;;;;;;;;5053563;28;20207;-58
2022/03/08 09:30:53;;;;;;;9.15;5.80;;;;;;;;;;5052674;28;20233;-58
2022/03/08 09:33:18;;;;;;;9.07;5.53;;;;;;;;;;5052921;28;20223;-57
2022/03/08 09:35:44;;;;;;;10.13;5.63;;;;;;;;;;5053190;28;20211;-59
2022/03/08 09:38:11;;;;;;;10.25;5.85;;;;;;;;;;5051887;28;20338;-58
2022/03/08 09:40:37;;;;;;;7.28;5.05;;;;;;;;;;5052838;28;20215;-58
2022/03/08 09:43:02;;;;;;;7.05;5.28;;;;;;;;;;5034924;28;20203;-58
2022/03/08 09:45:27;;;;;;;6.63;4.30;;;;;;;;;;5052485;28;20207;-58
2022/03/08 09:47:53;;;;;;;9.35;5.70;;;;;;;;;;5052997;28;20211;-58
2022/03/08 09:50:18;;;;;;;9.63;5.25;;;;;;;;;;5052156;28;20223;-58
2022/03/08 09:52:44;;;;;;;6.95;5.05;;;;;;;;;;5052297;28;20227;-58
2022/03/08 09:55:10;;;;;;;6.03;4.75;;;;;;;;;;5052106;28;20206;-58
2022/03/08 09:57:35;;;;;;;9.55;5.13;;;;;;;;;;5060791;28;20620;-59
2022/03/08 10:00:00;;;;;;;8.38;4.90;;;;;;;;;;5071610;28;20198;-60
2022/03/08 10:02:39;;;;;;;9.10;5.22;;;;;;;;;;5072781;28;20302;-59
2022/03/08 10:05:05;;;;;;;9.88;6.30;;;;;;;;;;5062265;28;20241;-60
2022/03/08 10:07:31;;;;;;;7.65;4.45;;;;;;;;;;5052061;28;20673;-59
2022/03/08 10:09:56;;;;;;;8.50;4.95;;;;;;;;;;5052388;28;20673;-59
2022/03/08 10:12:21;;;;;;;9.65;6.70;;;;;;;;;;5051284;28;20230;-59
2022/03/08 10:14:47;;;;;;;8.75;5.95;;;;;;;;;;5071412;28;20210;-60
2022/03/08 10:17:31;;;;;;;9.63;5.18;;;;;;;;;;5071997;28;20577;-59
2022/03/08 10:19:56;;;;;;;11.75;5.28;;;;;;;;;;5071365;28;20653;-59
2022/03/08 10:22:23;;;;;;;7.80;5.40;;;;;;;;;;5054066;28;20198;-59
2022/03/08 10:24:48;;;;;;;10.15;5.80;;;;;;;;;;5071965;28;20218;-59
2022/03/08 10:27:14;;;;;;;11.30;5.88;;;;;;;;;;5055895;28;20207;-58
2022/03/08 10:29:39;;;;;;;7.80;4.82;;;;;;;;;;5052408;28;20218;-58
2022/03/08 10:32:05;;;;;;;9.63;5.35;;;;;;;;;;5051658;28;20235;-59
2022/03/08 10:34:30;;;;;;;7.10;5.00;;;;;;;;;;5050556;28;20207;-59
2022/03/08 10:36:57;;;;;;;7.50;5.45;;;;;;;;;;5056519;28;20275;-59
2022/03/08 10:39:23;;;;;;;7.75;5.20;;;;;;;;;;5057078;28;20710;-59
2022/03/08 10:41:49;;;;;;;9.55;5.15;;;;;;;;;;5067697;28;20229;-59
2022/03/08 10:44:15;;;;;;;8.07;4.82;;;;;;;;;;5070109;28;20206;-59
2022/03/08 10:46:40;;;;;;;6.68;4.60;;;;;;;;;;5051941;28;20215;-59
2022/03/08 10:49:12;;;;;;;8.30;4.85;;;;;;;;;;5050519;28;20227;-59
2022/03/08 10:51:37;;;;;;;10.70;5.10;;;;;;;;;;5051519;28;20214;-59
2022/03/08 10:54:12;;;;;;;6.82;4.88;;;;;;;;;;5062827;28;20214;-58
2022/03/08 10:56:41;;;;;;;11.32;4.90;;;;;;;;;;5070965;28;20293;-62
2022/03/08 10:59:07;;;;;;;7.72;4.53;;;;;;;;;;5049310;28;21925;-62
2022/03/08 11:01:32;;;;;;;8.70;4.82;;;;;;;;;;5050902;28;20912;-61
2022/03/08 11:03:57;;;;;;;6.18;4.25;;;;;;;;;;5052252;28;20218;-60
2022/03/08 11:06:23;;;;;;;11.57;5.80;;;;;;;;;;5070807;28;20245;-63
2022/03/08 11:08:48;;;;;;;21.02;10.98;;;;;;;;;;5070868;28;20229;-62
2022/03/08 11:11:14;;;;;;;9.75;4.50;;;;;;;;;;5057906;28;20199;-58
2022/03/08 11:13:39;;;;;;;7.82;4.13;;;;;;;;;;5051278;28;20226;-59
2022/03/08 11:16:05;;;;;;;7.43;4.50;;;;;;;;;;5032494;28;20696;-59
2022/03/08 11:18:30;;;;;;;7.50;4.13;;;;;;;;;;5033359;28;20284;-59
2022/03/08 11:20:58;;;;;;;19.70;6.80;;;;;;;;;;5033619;28;20742;-58
2022/03/08 11:23:23;;;;;;;8.45;4.25;;;;;;;;;;5049960;28;20276;-59
2022/03/08 11:25:48;;;;;;;8.10;3.60;;;;;;;;;;5033098;28;20215;-59
2022/03/08 11:28:14;;;;;;;6.43;3.53;;;;;;;;;;5050594;28;20256;-59
2022/03/08 11:30:46;;;;;;;9.00;4.45;;;;;;;;;;5050314;28;20211;-59
2022/03/08 11:33:16;;;;;;;5.78;3.55;;;;;;;;;;5050221;28;20231;-59
2022/03/08 11:35:49;;;;;;;7.38;3.80;;;;;;;;;;5033263;28;20211;-59
2022/03/08 11:38:15;;;;;;;8.32;3.83;;;;;;;;;;5049546;28;20215;-59
2022/03/08 11:40:48;;;;;;;8.25;3.60;;;;;;;;;;5032899;28;20211;-59
2022/03/08 11:43:13;;;;;;;5.88;3.40;;;;;;;;;;5032571;28;20234;-59
2022/03/08 11:45:38;;;;;;;8.38;3.78;;;;;;;;;;5047174;28;20249;-59
2022/03/08 11:48:04;;;;;;;5.18;3.40;;;;;;;;;;5070299;28;20206;-59
2022/03/08 11:50:32;;;;;;;9.00;3.83;;;;;;;;;;5070533;28;20222;-59
2022/03/08 11:53:06;;;;;;;8.48;3.90;;;;;;;;;;5069737;28;20261;-58
2022/03/08 11:55:34;;;;;;;6.85;4.20;;;;;;;;;;5070026;28;20296;-58
2022/03/08 11:58:00;;;;;;;7.60;4.20;;;;;;;;;;5068731;28;20411;-58
2022/03/08 12:00:30;;;;;;;7.20;4.00;;;;;;;;;;5070179;28;20695;-58
2022/03/08 12:02:56;;;;;;;6.57;4.10;;;;;;;;;;5070514;28;20222;-58
2022/03/08 12:05:38;;;;;;;6.65;4.05;;;;;;;;;;5056924;28;20654;-59
2022/03/08 12:08:21;;;;;;;8.00;3.90;;;;;;;;;;5049840;28;20211;-59
2022/03/08 12:10:47;;;;;;;6.18;3.90;;;;;;;;;;5050004;28;20211;-59
2022/03/08 12:13:13;;;;;;;6.70;3.85;;;;;;;;;;5054645;28;20210;-59
2022/03/08 12:15:58;;;;;;;7.57;4.13;;;;;;;;;;5070527;28;20248;-59
2022/03/08 12:18:28;;;;;;;7.95;4.30;;;;;;;;;;5069606;28;20486;-59
2022/03/08 12:21:13;;;;;;;10.95;4.35;;;;;;;;;;5052035;28;20711;-59
2022/03/08 12:23:58;;;;;;;6.05;4.45;;;;;;;;;;5069626;28;20202;-59
2022/03/08 12:26:27;;;;;;;6.68;3.97;;;;;;;;;;5068969;28;20268;-59
2022/03/08 12:29:13;;;;;;;5.60;4.30;;;;;;;;;;5070134;28;20252;-59
2022/03/08 12:31:56;;;;;;;5.85;3.92;;;;;;;;;;5069845;28;20523;-59
2022/03/08 12:34:39;;;;;;;8.40;4.40;;;;;;;;;;5069135;28;20226;-59
2022/03/08 12:37:06;;;;;;;5.60;3.88;;;;;;;;;;5069914;28;20221;-59
2022/03/08 12:39:45;;;;;;;8.05;4.05;;;;;;;;;;5069679;28;20213;-59
2022/03/08 12:42:17;;;;;;;8.35;4.13;;;;;;;;;;5069170;28;20268;-59
2022/03/08 12:44:49;;;;;;;8.93;4.28;;;;;;;;;;5065773;28;20210;-59
2022/03/08 12:47:16;;;;;;;5.85;3.90;;;;;;;;;;5053096;28;20210;-59
2022/03/08 12:49:41;;;;;;;6.43;4.03;;;;;;;;;;5054084;28;20690;-59
2022/03/08 12:52:06;;;;;;;7.75;4.28;;;;;;;;;;5035875;28;20223;-59
2022/03/08 12:54:31;;;;;;;6.60;4.30;;;;;;;;;;5035095;28;20286;-59
2022/03/08 12:56:57;;;;;;;7.82;4.32;;;;;;;;;;5054074;28;20206;-59
2022/03/08 12:59:22;;;;;;;5.20;3.90;;;;;;;;;;5053554;28;20298;-59
2022/03/08 13:01:47;;;;;;;6.90;4.70;;;;;;;;;;5052991;28;20212;-59
2022/03/08 13:04:22;;;;;;;7.30;4.57;;;;;;;;;;5056017;28;20260;-59
2022/03/08 13:06:47;;;;;;;8.35;4.57;;;;;;;;;;5073704;28;20198;-59
2022/03/08 13:09:12;;;;;;;6.85;4.40;;;;;;;;;;5054300;28;20206;-59
2022/03/08 13:11:39;;;;;;;8.65;4.47;;;;;;;;;;5073807;28;20268;-59
2022/03/08 13:14:10;;;;;;;8.57;4.38;;;;;;;;;;5065228;28;20305;-58
2022/03/08 13:16:37;;;;;;;6.97;4.70;;;;;;;;;;5067786;28;20211;-59
2022/03/08 13:19:02;;;;;;;6.97;4.28;;;;;;;;;;5055739;28;20745;-59
2022/03/08 13:21:28;;;;;;;7.03;4.45;;;;;;;;;;5053427;28;20230;-59
2022/03/08 13:23:55;;;;;;;6.30;3.97;;;;;;;;;;5052362;28;20746;-59
2022/03/08 13:29:05;;;;;;;7.80;4.20;;;;;;;;;;5053017;28;20214;-60
2022/03/08 13:31:30;;;;;;;7.93;4.53;;;;;;;;;;5064924;28;20207;-59
2022/03/08 13:33:56;;;;;;;8.15;4.60;;;;;;;;;;5073103;28;20238;-59
2022/03/08 13:36:21;;;;;;;6.00;4.35;;;;;;;;;;5072182;28;20202;-59
2022/03/08 13:38:47;;;;;;;6.47;4.10;;;;;;;;;;5072860;28;20220;-59
2022/03/08 13:41:13;;;;;;;7.18;4.55;;;;;;;;;;5054758;28;20701;-59
2022/03/08 13:43:39;;;;;;;5.40;4.07;;;;;;;;;;5072313;28;20217;-59
2022/03/08 13:46:06;;;;;;;5.63;3.35;;;;;;;;;;5035949;28;20207;-59
2022/03/08 13:48:33;;;;;;;7.15;3.60;;;;;;;;;;5052591;28;20230;-58
2022/03/08 13:51:05;;;;;;;6.50;4.53;;;;;;;;;;5052311;28;20234;-59
2022/03/08 13:53:31;;;;;;;9.60;4.55;;;;;;;;;;5052168;28;20223;-60
2022/03/08 13:55:56;;;;;;;8.48;4.15;;;;;;;;;;5052264;28;20665;-58
2022/03/08 13:58:22;;;;;;;8.13;4.50;;;;;;;;;;5051643;28;20207;-60
2022/03/08 14:00:47;;;;;;;7.25;4.65;;;;;;;;;;5082223;28;20210;-59
2022/03/08 14:03:13;;;;;;;6.97;5.25;;;;;;;;;;5074404;28;20213;-60
2022/03/08 14:05:53;;;;;;;7.13;4.80;;;;;;;;;;5077311;28;20683;-59
2022/03/08 14:08:26;;;;;;;7.57;4.68;;;;;;;;;;5071934;28;20214;-59
2022/03/08 14:10:53;;;;;;;9.80;5.25;;;;;;;;;;5072675;28;20198;-59
2022/03/08 14:13:18;;;;;;;7.72;5.25;;;;;;;;;;5064859;28;20219;-59
2022/03/08 14:15:52;;;;;;;7.35;5.20;;;;;;;;;;5034653;28;20261;-59
2022/03/08 14:18:17;;;;;;;8.15;4.95;;;;;;;;;;5051990;28;20631;-59
2022/03/08 14:20:42;;;;;;;9.13;4.72;;;;;;;;;;5051557;28;20211;-59
2022/03/08 14:23:08;;;;;;;9.98;4.57;;;;;;;;;;5051610;28;20207;-60
2022/03/08 14:25:34;;;;;;;7.88;4.70;;;;;;;;;;5051403;28;20207;-59
2022/03/08 14:28:00;;;;;;;8.02;4.93;;;;;;;;;;5052211;28;20574;-60
2022/03/08 14:30:26;;;;;;;7.38;4.50;;;;;;;;;;5051703;28;20303;-59
2022/03/08 14:32:51;;;;;;;10.07;4.55;;;;;;;;;;5051711;28;20230;-59
2022/03/08 14:35:17;;;;;;;6.88;4.57;;;;;;;;;;5051755;28;20218;-59